sensor_id;sensor_type;location;lat;lon;timestamp;P1;durP1;ratioP1;P2;durP2;ratioP2
5882;SDS011;2967;51.488;6.618;2024-02-04T00:05:12;8.07;;;7.27;;
5882;SDS011;2967;51.488;6.618;2024-02-04T00:10:15;6.90;;;6.17;;
5882;SDS011;2967;51.488;6.618;2024-02-04T00:15:21;6.00;;;5.40;;
5882;SDS011;2967;51.488;6.618;2024-02-04T00:20:24;8.53;;;5.10;;
5882;SDS011;2967;51.488;6.618;2024-02-04T00:25:28;6.93;;;4.50;;
5882;SDS011;2967;51.488;6.618;2024-02-04T00:30:33;8.30;;;5.50;;
5882;SDS011;2967;51.488;6.618;2024-02-04T00:35:35;6.17;;;5.67;;
5882;SDS011;2967;51.488;6.618;2024-02-04T00:40:39;9.80;;;7.43;;
5882;SDS011;2967;51.488;6.618;2024-02-04T00:45:43;7.87;;;7.07;;
5882;SDS011;2967;51.488;6.618;2024-02-04T00:50:46;14.13;;;7.33;;
5882;SDS011;2967;51.488;6.618;2024-02-04T00:55:49;8.77;;;7.83;;
5882;SDS011;2967;51.488;6.618;2024-02-04T01:00:55;7.77;;;6.93;;
5882;SDS011;2967;51.488;6.618;2024-02-04T01:05:58;9.07;;;8.17;;
5882;SDS011;2967;51.488;6.618;2024-02-04T01:11:01;8.90;;;8.00;;
5882;SDS011;2967;51.488;6.618;2024-02-04T01:16:05;8.90;;;8.07;;
5882;SDS011;2967;51.488;6.618;2024-02-04T01:21:08;8.80;;;8.00;;
5882;SDS011;2967;51.488;6.618;2024-02-04T01:26:11;9.03;;;8.23;;
5882;SDS011;2967;51.488;6.618;2024-02-04T01:31:15;8.63;;;7.83;;
5882;SDS011;2967;51.488;6.618;2024-02-04T01:36:17;8.50;;;7.80;;
5882;SDS011;2967;51.488;6.618;2024-02-04T01:41:20;8.90;;;8.07;;
5882;SDS011;2967;51.488;6.618;2024-02-04T01:46:25;9.30;;;8.40;;
5882;SDS011;2967;51.488;6.618;2024-02-04T01:51:27;9.80;;;8.17;;
5882;SDS011;2967;51.488;6.618;2024-02-04T01:56:30;8.77;;;7.97;;
5882;SDS011;2967;51.488;6.618;2024-02-04T02:01:35;13.17;;;8.43;;
5882;SDS011;2967;51.488;6.618;2024-02-04T02:06:38;7.70;;;7.00;;
5882;SDS011;2967;51.488;6.618;2024-02-04T02:11:44;8.50;;;7.70;;
5882;SDS011;2967;51.488;6.618;2024-02-04T02:16:51;8.20;;;7.40;;
5882;SDS011;2967;51.488;6.618;2024-02-04T02:21:56;9.20;;;8.30;;
5882;SDS011;2967;51.488;6.618;2024-02-04T02:27:05;8.80;;;7.50;;
5882;SDS011;2967;51.488;6.618;2024-02-04T02:32:07;9.77;;;8.87;;
5882;SDS011;2967;51.488;6.618;2024-02-04T02:37:15;9.70;;;8.80;;
5882;SDS011;2967;51.488;6.618;2024-02-04T02:42:25;10.50;;;9.60;;
5882;SDS011;2967;51.488;6.618;2024-02-04T02:47:29;11.40;;;10.30;;
5882;SDS011;2967;51.488;6.618;2024-02-04T02:52:32;10.93;;;9.83;;
5882;SDS011;2967;51.488;6.618;2024-02-04T02:57:37;12.27;;;10.40;;
5882;SDS011;2967;51.488;6.618;2024-02-04T03:02:40;12.77;;;10.87;;
5882;SDS011;2967;51.488;6.618;2024-02-04T03:07:43;15.50;;;11.40;;
5882;SDS011;2967;51.488;6.618;2024-02-04T03:12:47;14.90;;;10.33;;
5882;SDS011;2967;51.488;6.618;2024-02-04T03:17:50;14.03;;;12.73;;
5882;SDS011;2967;51.488;6.618;2024-02-04T03:22:54;13.70;;;12.30;;
5882;SDS011;2967;51.488;6.618;2024-02-04T03:27:58;16.20;;;13.67;;
5882;SDS011;2967;51.488;6.618;2024-02-04T03:33:02;16.17;;;13.20;;
5882;SDS011;2967;51.488;6.618;2024-02-04T03:38:05;16.93;;;13.57;;
5882;SDS011;2967;51.488;6.618;2024-02-04T03:43:10;15.43;;;12.93;;
5882;SDS011;2967;51.488;6.618;2024-02-04T03:48:13;15.63;;;13.00;;
5882;SDS011;2967;51.488;6.618;2024-02-04T03:53:16;15.67;;;12.97;;
5882;SDS011;2967;51.488;6.618;2024-02-04T03:58:22;15.77;;;13.50;;
5882;SDS011;2967;51.488;6.618;2024-02-04T04:03:30;15.83;;;13.40;;
5882;SDS011;2967;51.488;6.618;2024-02-04T04:08:34;16.03;;;14.43;;
5882;SDS011;2967;51.488;6.618;2024-02-04T04:13:39;16.37;;;14.40;;
5882;SDS011;2967;51.488;6.618;2024-02-04T04:24:11;14.00;;;12.60;;
5882;SDS011;2967;51.488;6.618;2024-02-04T04:29:18;20.63;;;14.67;;
5882;SDS011;2967;51.488;6.618;2024-02-04T04:34:21;20.83;;;14.60;;
5882;SDS011;2967;51.488;6.618;2024-02-04T04:39:24;18.23;;;13.33;;
5882;SDS011;2967;51.488;6.618;2024-02-04T04:44:28;16.73;;;13.73;;
5882;SDS011;2967;51.488;6.618;2024-02-04T04:49:30;22.33;;;13.60;;
5882;SDS011;2967;51.488;6.618;2024-02-04T04:54:33;13.83;;;12.13;;
5882;SDS011;2967;51.488;6.618;2024-02-04T04:59:38;19.10;;;13.00;;
5882;SDS011;2967;51.488;6.618;2024-02-04T05:04:42;16.13;;;10.93;;
5882;SDS011;2967;51.488;6.618;2024-02-04T05:09:45;15.80;;;11.60;;
5882;SDS011;2967;51.488;6.618;2024-02-04T05:14:49;15.10;;;11.87;;
5882;SDS011;2967;51.488;6.618;2024-02-04T05:19:52;17.57;;;11.10;;
5882;SDS011;2967;51.488;6.618;2024-02-04T05:24:55;16.00;;;10.87;;
5882;SDS011;2967;51.488;6.618;2024-02-04T05:29:59;14.40;;;10.33;;
5882;SDS011;2967;51.488;6.618;2024-02-04T05:35:04;15.53;;;11.97;;
5882;SDS011;2967;51.488;6.618;2024-02-04T05:40:10;18.53;;;10.57;;
5882;SDS011;2967;51.488;6.618;2024-02-04T05:45:16;16.07;;;11.30;;
5882;SDS011;2967;51.488;6.618;2024-02-04T05:50:19;15.60;;;11.20;;
5882;SDS011;2967;51.488;6.618;2024-02-04T05:55:22;23.07;;;13.40;;
5882;SDS011;2967;51.488;6.618;2024-02-04T06:00:26;23.83;;;15.00;;
5882;SDS011;2967;51.488;6.618;2024-02-04T06:05:29;24.40;;;16.27;;
5882;SDS011;2967;51.488;6.618;2024-02-04T06:10:31;26.23;;;19.17;;
5882;SDS011;2967;51.488;6.618;2024-02-04T06:15:36;23.53;;;19.57;;
5882;SDS011;2967;51.488;6.618;2024-02-04T06:20:46;25.90;;;22.33;;
5882;SDS011;2967;51.488;6.618;2024-02-04T06:25:48;29.30;;;23.73;;
5882;SDS011;2967;51.488;6.618;2024-02-04T06:30:52;31.00;;;25.07;;
5882;SDS011;2967;51.488;6.618;2024-02-04T06:35:55;31.93;;;24.83;;
5882;SDS011;2967;51.488;6.618;2024-02-04T06:40:58;31.83;;;24.43;;
5882;SDS011;2967;51.488;6.618;2024-02-04T06:46:03;30.67;;;23.90;;
5882;SDS011;2967;51.488;6.618;2024-02-04T06:51:08;31.03;;;22.20;;
5882;SDS011;2967;51.488;6.618;2024-02-04T06:56:11;28.23;;;21.83;;
5882;SDS011;2967;51.488;6.618;2024-02-04T07:01:16;22.97;;;20.10;;
5882;SDS011;2967;51.488;6.618;2024-02-04T07:06:19;25.83;;;19.80;;
5882;SDS011;2967;51.488;6.618;2024-02-04T07:11:24;21.97;;;18.37;;
5882;SDS011;2967;51.488;6.618;2024-02-04T07:16:28;24.97;;;17.23;;
5882;SDS011;2967;51.488;6.618;2024-02-04T07:21:30;23.33;;;18.10;;
5882;SDS011;2967;51.488;6.618;2024-02-04T07:26:33;22.73;;;17.17;;
5882;SDS011;2967;51.488;6.618;2024-02-04T07:31:37;20.40;;;15.47;;
5882;SDS011;2967;51.488;6.618;2024-02-04T07:36:40;18.40;;;15.50;;
5882;SDS011;2967;51.488;6.618;2024-02-04T07:41:44;21.63;;;14.03;;
5882;SDS011;2967;51.488;6.618;2024-02-04T07:46:49;16.63;;;11.87;;
5882;SDS011;2967;51.488;6.618;2024-02-04T07:51:52;14.53;;;10.60;;
5882;SDS011;2967;51.488;6.618;2024-02-04T07:56:54;9.57;;;8.37;;
5882;SDS011;2967;51.488;6.618;2024-02-04T08:01:59;10.43;;;8.83;;
5882;SDS011;2967;51.488;6.618;2024-02-04T08:07:01;14.50;;;10.57;;
5882;SDS011;2967;51.488;6.618;2024-02-04T08:12:06;15.90;;;10.10;;
5882;SDS011;2967;51.488;6.618;2024-02-04T08:17:11;12.83;;;9.50;;
5882;SDS011;2967;51.488;6.618;2024-02-04T08:22:14;10.23;;;8.90;;
5882;SDS011;2967;51.488;6.618;2024-02-04T08:27:22;6.30;;;5.70;;
5882;SDS011;2967;51.488;6.618;2024-02-04T08:32:27;7.83;;;7.03;;
5882;SDS011;2967;51.488;6.618;2024-02-04T08:37:35;11.20;;;8.87;;
5882;SDS011;2967;51.488;6.618;2024-02-04T08:42:39;14.03;;;12.13;;
5882;SDS011;2967;51.488;6.618;2024-02-04T08:47:44;22.60;;;18.87;;
5882;SDS011;2967;51.488;6.618;2024-02-04T08:52:47;11.97;;;10.70;;
5882;SDS011;2967;51.488;6.618;2024-02-04T08:57:50;16.67;;;12.90;;
5882;SDS011;2967;51.488;6.618;2024-02-04T09:02:56;15.63;;;13.40;;
5882;SDS011;2967;51.488;6.618;2024-02-04T09:07:59;17.80;;;13.37;;
5882;SDS011;2967;51.488;6.618;2024-02-04T09:13:03;15.13;;;12.87;;
5882;SDS011;2967;51.488;6.618;2024-02-04T09:18:08;14.70;;;11.67;;
5882;SDS011;2967;51.488;6.618;2024-02-04T09:23:11;15.60;;;12.03;;
5882;SDS011;2967;51.488;6.618;2024-02-04T09:28:15;15.10;;;11.00;;
5882;SDS011;2967;51.488;6.618;2024-02-04T09:33:19;12.50;;;11.20;;
5882;SDS011;2967;51.488;6.618;2024-02-04T09:38:24;13.80;;;10.70;;
5882;SDS011;2967;51.488;6.618;2024-02-04T09:43:27;13.47;;;10.73;;
5882;SDS011;2967;51.488;6.618;2024-02-04T09:48:41;18.67;;;10.93;;
5882;SDS011;2967;51.488;6.618;2024-02-04T09:53:52;10.83;;;9.67;;
5882;SDS011;2967;51.488;6.618;2024-02-04T09:58:56;11.13;;;9.57;;
5882;SDS011;2967;51.488;6.618;2024-02-04T10:04:05;10.50;;;9.43;;
5882;SDS011;2967;51.488;6.618;2024-02-04T10:09:07;12.10;;;10.43;;
5882;SDS011;2967;51.488;6.618;2024-02-04T10:14:10;14.60;;;11.67;;
5882;SDS011;2967;51.488;6.618;2024-02-04T10:19:20;13.97;;;11.20;;
5882;SDS011;2967;51.488;6.618;2024-02-04T10:24:26;14.50;;;10.97;;
5882;SDS011;2967;51.488;6.618;2024-02-04T10:29:29;11.90;;;10.17;;
5882;SDS011;2967;51.488;6.618;2024-02-04T10:34:45;11.87;;;10.50;;
5882;SDS011;2967;51.488;6.618;2024-02-04T10:39:51;12.00;;;10.13;;
5882;SDS011;2967;51.488;6.618;2024-02-04T10:50:41;9.67;;;8.77;;
5882;SDS011;2967;51.488;6.618;2024-02-04T10:55:47;8.27;;;6.80;;
5882;SDS011;2967;51.488;6.618;2024-02-04T11:00:52;7.47;;;6.73;;
5882;SDS011;2967;51.488;6.618;2024-02-04T11:06:02;7.87;;;7.10;;
5882;SDS011;2967;51.488;6.618;2024-02-04T11:11:05;6.50;;;5.27;;
5882;SDS011;2967;51.488;6.618;2024-02-04T11:16:12;6.47;;;5.40;;
5882;SDS011;2967;51.488;6.618;2024-02-04T11:21:29;5.27;;;4.10;;
5882;SDS011;2967;51.488;6.618;2024-02-04T11:26:50;4.07;;;3.67;;
5882;SDS011;2967;51.488;6.618;2024-02-04T11:31:53;5.33;;;4.90;;
5882;SDS011;2967;51.488;6.618;2024-02-04T11:37:01;5.17;;;4.67;;
5882;SDS011;2967;51.488;6.618;2024-02-04T11:42:13;5.90;;;5.40;;
5882;SDS011;2967;51.488;6.618;2024-02-04T11:47:23;6.20;;;5.60;;
5882;SDS011;2967;51.488;6.618;2024-02-04T11:52:28;6.10;;;5.57;;
5882;SDS011;2967;51.488;6.618;2024-02-04T11:57:33;7.87;;;5.27;;
5882;SDS011;2967;51.488;6.618;2024-02-04T12:02:44;5.83;;;5.17;;
5882;SDS011;2967;51.488;6.618;2024-02-04T12:07:48;5.93;;;5.37;;
5882;SDS011;2967;51.488;6.618;2024-02-04T12:12:52;8.17;;;5.53;;
5882;SDS011;2967;51.488;6.618;2024-02-04T12:18:04;8.73;;;5.90;;
5882;SDS011;2967;51.488;6.618;2024-02-04T12:23:09;9.00;;;6.07;;
5882;SDS011;2967;51.488;6.618;2024-02-04T12:28:13;7.50;;;5.93;;
5882;SDS011;2967;51.488;6.618;2024-02-04T12:33:17;7.50;;;6.37;;
5882;SDS011;2967;51.488;6.618;2024-02-04T12:38:22;9.10;;;5.77;;
5882;SDS011;2967;51.488;6.618;2024-02-04T12:43:28;7.00;;;5.30;;
5882;SDS011;2967;51.488;6.618;2024-02-04T12:48:42;5.80;;;5.27;;
5882;SDS011;2967;51.488;6.618;2024-02-04T12:53:48;6.43;;;5.83;;
5882;SDS011;2967;51.488;6.618;2024-02-04T12:59:27;6.33;;;5.83;;
5882;SDS011;2967;51.488;6.618;2024-02-04T13:04:33;6.93;;;6.23;;
5882;SDS011;2967;51.488;6.618;2024-02-04T13:09:43;6.40;;;5.90;;
5882;SDS011;2967;51.488;6.618;2024-02-04T13:14:47;7.40;;;5.77;;
5882;SDS011;2967;51.488;6.618;2024-02-04T13:19:51;9.60;;;5.70;;
5882;SDS011;2967;51.488;6.618;2024-02-04T13:24:56;11.53;;;9.43;;
5882;SDS011;2967;51.488;6.618;2024-02-04T13:30:02;8.33;;;7.60;;
5882;SDS011;2967;51.488;6.618;2024-02-04T13:35:05;7.30;;;6.70;;
5882;SDS011;2967;51.488;6.618;2024-02-04T13:40:21;11.50;;;9.30;;
5882;SDS011;2967;51.488;6.618;2024-02-04T13:45:26;9.47;;;7.40;;
5882;SDS011;2967;51.488;6.618;2024-02-04T13:50:37;7.83;;;7.10;;
5882;SDS011;2967;51.488;6.618;2024-02-04T13:55:41;8.03;;;6.87;;
5882;SDS011;2967;51.488;6.618;2024-02-04T14:00:47;8.20;;;7.40;;
5882;SDS011;2967;51.488;6.618;2024-02-04T14:05:50;10.03;;;8.37;;
5882;SDS011;2967;51.488;6.618;2024-02-04T14:10:57;9.53;;;8.50;;
5882;SDS011;2967;51.488;6.618;2024-02-04T14:16:00;8.70;;;7.90;;
5882;SDS011;2967;51.488;6.618;2024-02-04T14:21:04;8.57;;;7.70;;
5882;SDS011;2967;51.488;6.618;2024-02-04T14:26:16;9.80;;;8.80;;
5882;SDS011;2967;51.488;6.618;2024-02-04T14:31:19;9.20;;;8.30;;
5882;SDS011;2967;51.488;6.618;2024-02-04T14:36:23;13.47;;;11.90;;
5882;SDS011;2967;51.488;6.618;2024-02-04T14:41:27;10.80;;;9.53;;
5882;SDS011;2967;51.488;6.618;2024-02-04T14:46:30;9.03;;;8.13;;
5882;SDS011;2967;51.488;6.618;2024-02-04T14:51:33;10.07;;;7.00;;
5882;SDS011;2967;51.488;6.618;2024-02-04T14:56:39;11.00;;;7.00;;
5882;SDS011;2967;51.488;6.618;2024-02-04T15:01:44;8.57;;;7.80;;
5882;SDS011;2967;51.488;6.618;2024-02-04T15:06:47;8.93;;;7.47;;
5882;SDS011;2967;51.488;6.618;2024-02-04T15:11:52;12.53;;;7.50;;
5882;SDS011;2967;51.488;6.618;2024-02-04T15:16:55;15.23;;;9.43;;
5882;SDS011;2967;51.488;6.618;2024-02-04T15:21:59;8.77;;;7.90;;
5882;SDS011;2967;51.488;6.618;2024-02-04T15:27:04;12.43;;;8.70;;
5882;SDS011;2967;51.488;6.618;2024-02-04T15:32:14;10.73;;;8.17;;
5882;SDS011;2967;51.488;6.618;2024-02-04T15:37:18;13.30;;;8.20;;
5882;SDS011;2967;51.488;6.618;2024-02-04T15:42:23;13.60;;;9.20;;
5882;SDS011;2967;51.488;6.618;2024-02-04T15:47:26;13.37;;;7.67;;
5882;SDS011;2967;51.488;6.618;2024-02-04T15:52:34;9.80;;;7.40;;
5882;SDS011;2967;51.488;6.618;2024-02-04T15:57:41;10.87;;;7.00;;
5882;SDS011;2967;51.488;6.618;2024-02-04T16:02:51;10.50;;;7.90;;
5882;SDS011;2967;51.488;6.618;2024-02-04T16:07:55;12.87;;;7.53;;
5882;SDS011;2967;51.488;6.618;2024-02-04T16:13:01;11.93;;;6.70;;
5882;SDS011;2967;51.488;6.618;2024-02-04T16:18:14;10.73;;;6.77;;
5882;SDS011;2967;51.488;6.618;2024-02-04T16:23:20;9.53;;;6.20;;
5882;SDS011;2967;51.488;6.618;2024-02-04T16:28:24;8.87;;;5.87;;
5882;SDS011;2967;51.488;6.618;2024-02-04T16:33:27;7.50;;;5.33;;
5882;SDS011;2967;51.488;6.618;2024-02-04T16:38:30;10.50;;;6.07;;
5882;SDS011;2967;51.488;6.618;2024-02-04T16:43:37;7.30;;;5.03;;
5882;SDS011;2967;51.488;6.618;2024-02-04T16:48:40;8.57;;;5.40;;
5882;SDS011;2967;51.488;6.618;2024-02-04T16:53:45;7.70;;;5.50;;
5882;SDS011;2967;51.488;6.618;2024-02-04T16:58:49;10.60;;;5.20;;
5882;SDS011;2967;51.488;6.618;2024-02-04T17:03:55;10.23;;;5.97;;
5882;SDS011;2967;51.488;6.618;2024-02-04T17:08:59;7.83;;;5.53;;
5882;SDS011;2967;51.488;6.618;2024-02-04T17:14:07;5.77;;;5.27;;
5882;SDS011;2967;51.488;6.618;2024-02-04T17:19:17;9.13;;;4.20;;
5882;SDS011;2967;51.488;6.618;2024-02-04T17:24:29;7.83;;;4.70;;
5882;SDS011;2967;51.488;6.618;2024-02-04T17:29:47;8.73;;;4.00;;
5882;SDS011;2967;51.488;6.618;2024-02-04T17:34:51;9.37;;;4.50;;
5882;SDS011;2967;51.488;6.618;2024-02-04T17:39:55;5.30;;;3.20;;
5882;SDS011;2967;51.488;6.618;2024-02-04T17:45:00;6.30;;;3.30;;
5882;SDS011;2967;51.488;6.618;2024-02-04T17:50:10;5.97;;;3.20;;
5882;SDS011;2967;51.488;6.618;2024-02-04T17:55:13;6.43;;;3.47;;
5882;SDS011;2967;51.488;6.618;2024-02-04T18:00:17;9.77;;;3.40;;
5882;SDS011;2967;51.488;6.618;2024-02-04T18:05:20;8.13;;;4.23;;
5882;SDS011;2967;51.488;6.618;2024-02-04T18:10:25;7.13;;;3.67;;
5882;SDS011;2967;51.488;6.618;2024-02-04T18:15:29;18.73;;;5.20;;
5882;SDS011;2967;51.488;6.618;2024-02-04T18:20:32;10.50;;;4.13;;
5882;SDS011;2967;51.488;6.618;2024-02-04T18:25:39;18.33;;;5.40;;
5882;SDS011;2967;51.488;6.618;2024-02-04T18:30:50;13.00;;;5.23;;
5882;SDS011;2967;51.488;6.618;2024-02-04T18:35:57;11.40;;;6.00;;
5882;SDS011;2967;51.488;6.618;2024-02-04T18:41:00;9.20;;;5.60;;
5882;SDS011;2967;51.488;6.618;2024-02-04T18:46:38;30.73;;;11.50;;
5882;SDS011;2967;51.488;6.618;2024-02-04T18:51:43;13.77;;;6.27;;
5882;SDS011;2967;51.488;6.618;2024-02-04T18:56:48;15.20;;;7.10;;
5882;SDS011;2967;51.488;6.618;2024-02-04T19:01:53;12.50;;;6.53;;
5882;SDS011;2967;51.488;6.618;2024-02-04T19:06:56;14.93;;;6.73;;
5882;SDS011;2967;51.488;6.618;2024-02-04T19:12:02;11.23;;;6.70;;
5882;SDS011;2967;51.488;6.618;2024-02-04T19:17:07;12.83;;;7.83;;
5882;SDS011;2967;51.488;6.618;2024-02-04T19:22:10;11.03;;;6.53;;
5882;SDS011;2967;51.488;6.618;2024-02-04T19:27:13;10.83;;;5.63;;
5882;SDS011;2967;51.488;6.618;2024-02-04T19:32:17;16.10;;;5.80;;
5882;SDS011;2967;51.488;6.618;2024-02-04T19:37:21;11.50;;;5.97;;
5882;SDS011;2967;51.488;6.618;2024-02-04T19:42:24;10.90;;;5.40;;
5882;SDS011;2967;51.488;6.618;2024-02-04T19:47:28;8.97;;;5.73;;
5882;SDS011;2967;51.488;6.618;2024-02-04T19:52:32;8.53;;;4.70;;
5882;SDS011;2967;51.488;6.618;2024-02-04T19:57:36;7.83;;;4.73;;
5882;SDS011;2967;51.488;6.618;2024-02-04T20:02:41;9.30;;;4.90;;
5882;SDS011;2967;51.488;6.618;2024-02-04T20:07:45;6.90;;;4.83;;
5882;SDS011;2967;51.488;6.618;2024-02-04T20:12:51;7.57;;;4.70;;
5882;SDS011;2967;51.488;6.618;2024-02-04T20:18:03;11.97;;;4.00;;
5882;SDS011;2967;51.488;6.618;2024-02-04T20:23:07;6.30;;;4.10;;
5882;SDS011;2967;51.488;6.618;2024-02-04T20:28:10;9.03;;;6.10;;
5882;SDS011;2967;51.488;6.618;2024-02-04T20:33:14;5.70;;;4.60;;
5882;SDS011;2967;51.488;6.618;2024-02-04T20:38:17;4.90;;;4.40;;
5882;SDS011;2967;51.488;6.618;2024-02-04T20:43:21;8.73;;;4.90;;
5882;SDS011;2967;51.488;6.618;2024-02-04T20:48:26;8.90;;;4.63;;
5882;SDS011;2967;51.488;6.618;2024-02-04T20:53:29;14.13;;;9.80;;
5882;SDS011;2967;51.488;6.618;2024-02-04T20:58:33;6.57;;;4.53;;
5882;SDS011;2967;51.488;6.618;2024-02-04T21:03:37;6.83;;;5.23;;
5882;SDS011;2967;51.488;6.618;2024-02-04T21:08:40;7.20;;;5.07;;
5882;SDS011;2967;51.488;6.618;2024-02-04T21:13:43;11.63;;;5.87;;
5882;SDS011;2967;51.488;6.618;2024-02-04T21:18:47;10.73;;;5.97;;
5882;SDS011;2967;51.488;6.618;2024-02-04T21:23:51;7.60;;;5.50;;
5882;SDS011;2967;51.488;6.618;2024-02-04T21:28:54;11.60;;;6.50;;
5882;SDS011;2967;51.488;6.618;2024-02-04T21:34:00;9.30;;;5.63;;
5882;SDS011;2967;51.488;6.618;2024-02-04T21:39:04;11.43;;;5.10;;
5882;SDS011;2967;51.488;6.618;2024-02-04T21:44:09;13.37;;;5.70;;
5882;SDS011;2967;51.488;6.618;2024-02-04T21:49:14;15.97;;;6.37;;
5882;SDS011;2967;51.488;6.618;2024-02-04T21:54:17;10.53;;;5.83;;
5882;SDS011;2967;51.488;6.618;2024-02-04T21:59:20;17.90;;;6.00;;
5882;SDS011;2967;51.488;6.618;2024-02-04T22:04:29;8.50;;;5.70;;
5882;SDS011;2967;51.488;6.618;2024-02-04T22:09:32;12.83;;;6.37;;
5882;SDS011;2967;51.488;6.618;2024-02-04T22:14:35;18.07;;;6.37;;
5882;SDS011;2967;51.488;6.618;2024-02-04T22:19:39;23.63;;;7.10;;
5882;SDS011;2967;51.488;6.618;2024-02-04T22:24:54;15.67;;;7.00;;
5882;SDS011;2967;51.488;6.618;2024-02-04T22:29:59;15.77;;;7.20;;
5882;SDS011;2967;51.488;6.618;2024-02-04T22:35:05;13.73;;;6.03;;
5882;SDS011;2967;51.488;6.618;2024-02-04T22:40:10;10.50;;;5.80;;
5882;SDS011;2967;51.488;6.618;2024-02-04T22:45:14;18.37;;;7.37;;
5882;SDS011;2967;51.488;6.618;2024-02-04T22:50:18;9.47;;;6.90;;
5882;SDS011;2967;51.488;6.618;2024-02-04T22:55:22;17.33;;;8.27;;
5882;SDS011;2967;51.488;6.618;2024-02-04T23:00:25;17.37;;;7.70;;
5882;SDS011;2967;51.488;6.618;2024-02-04T23:05:33;18.43;;;7.10;;
5882;SDS011;2967;51.488;6.618;2024-02-04T23:10:36;14.87;;;7.40;;
5882;SDS011;2967;51.488;6.618;2024-02-04T23:15:38;19.47;;;6.40;;
5882;SDS011;2967;51.488;6.618;2024-02-04T23:20:47;13.70;;;6.47;;
5882;SDS011;2967;51.488;6.618;2024-02-04T23:25:50;15.80;;;7.63;;
5882;SDS011;2967;51.488;6.618;2024-02-04T23:30:53;14.97;;;7.00;;
5882;SDS011;2967;51.488;6.618;2024-02-04T23:35:58;17.50;;;7.00;;
5882;SDS011;2967;51.488;6.618;2024-02-04T23:41:00;17.27;;;7.87;;
5882;SDS011;2967;51.488;6.618;2024-02-04T23:46:04;21.93;;;9.97;;
5882;SDS011;2967;51.488;6.618;2024-02-04T23:51:10;20.90;;;8.23;;
5882;SDS011;2967;51.488;6.618;2024-02-04T23:56:12;22.03;;;8.57;;
